Alisal, California
Current Conditions -  °F | °C
As of 11:53 PM on Tuesday 21 Oct 2014 (Local Time) from KSNS Reporting Station
Clear Clear  
Wind Chill: 13°   Ceiling: Unl
Heat Index: 13°   Visibility: 10mi
Dew Point:   Wind: 3mph
Humidity: 75%   Direction: 20°NNE
Pressure: 30.03"   Gusts: NA
Location:  36.6786°N, 121.613°W
Report Text: KSNS 220653Z 02003KT 10SM CLR 13/09 A3003 RMK AO2 SLP178 T01330089
Loading
Personal Weather Stations






























Interactive Weather Map
Tropical Storm Tracking
New forecast layout! Learn more

10-Day Weather Forecast

Advertisements
Track Severe Weather on mobile